createdAt,value
2022-10-07T00:01:05.506Z,13.60
2022-10-07T00:03:35.694Z,13.60
2022-10-07T00:06:05.629Z,13.56
2022-10-07T00:08:35.670Z,13.49
2022-10-07T00:11:09.274Z,13.53
2022-10-07T00:13:39.777Z,13.54
2022-10-07T00:16:09.607Z,13.46
2022-10-07T00:18:39.299Z,13.41
2022-10-07T00:21:08.801Z,13.40
2022-10-07T00:23:37.072Z,13.30
2022-10-07T00:26:06.108Z,13.36
2022-10-07T00:28:34.487Z,13.35
2022-10-07T00:31:04.911Z,13.43
2022-10-07T00:33:34.994Z,13.35
2022-10-07T00:36:08.057Z,13.34
2022-10-07T00:38:35.895Z,13.33
2022-10-07T00:41:03.755Z,13.23
2022-10-07T00:43:32.774Z,13.24
2022-10-07T00:46:06.808Z,13.20
2022-10-07T00:48:37.247Z,13.21
2022-10-07T00:51:07.952Z,13.07
2022-10-07T00:53:38.767Z,13.18
2022-10-07T00:56:08.764Z,13.24
2022-10-07T00:58:40.882Z,13.28
2022-10-07T01:01:09.013Z,13.14
2022-10-07T01:03:37.884Z,13.22
2022-10-07T01:06:07.347Z,13.08
2022-10-07T01:08:35.562Z,13.08
2022-10-07T01:11:14.075Z,12.97
2022-10-07T01:13:51.810Z,13.07
2022-10-07T01:16:26.209Z,13.09
2022-10-07T01:19:03.799Z,13.10
2022-10-07T01:21:42.620Z,13.13
2022-10-07T01:24:25.659Z,13.10
2022-10-07T01:27:01.109Z,13.00
2022-10-07T01:29:35.140Z,12.96
2022-10-07T01:32:09.030Z,12.95
2022-10-07T01:34:38.589Z,12.87
2022-10-07T01:37:11.812Z,12.89
2022-10-07T01:39:47.329Z,12.85
2022-10-07T01:42:18.537Z,12.74
2022-10-07T01:44:49.401Z,12.78
2022-10-07T01:47:18.143Z,12.78
2022-10-07T01:49:46.472Z,12.81
2022-10-07T01:52:33.407Z,12.72
2022-10-07T01:55:21.468Z,12.75
2022-10-07T01:58:06.221Z,12.69
2022-10-07T02:00:39.169Z,12.63
2022-10-07T02:03:31.083Z,12.72
2022-10-07T02:06:08.106Z,12.75
2022-10-07T02:08:42.730Z,12.75
2022-10-07T02:11:16.104Z,12.56
2022-10-07T02:13:57.949Z,12.53
2022-10-07T02:16:34.743Z,12.52
2022-10-07T02:19:05.698Z,12.49
2022-10-07T02:21:36.964Z,12.40
2022-10-07T02:24:06.459Z,12.40
2022-10-07T02:26:37.167Z,12.35
2022-10-07T02:29:11.168Z,12.41
2022-10-07T02:31:42.489Z,12.40
2022-10-07T02:34:19.595Z,12.47
2022-10-07T02:36:54.659Z,12.50
2022-10-07T02:39:22.563Z,12.35
2022-10-07T02:41:59.812Z,12.39
2022-10-07T02:44:34.184Z,12.34
2022-10-07T02:47:09.734Z,12.31
2022-10-07T02:49:41.017Z,12.33
2022-10-07T02:52:11.820Z,12.26
2022-10-07T02:54:44.566Z,12.28
2022-10-07T02:57:14.839Z,12.29
2022-10-07T02:59:45.219Z,12.15
2022-10-07T03:02:17.890Z,12.22
2022-10-07T03:04:46.242Z,12.17
2022-10-07T03:07:14.520Z,12.14
2022-10-07T03:09:43.453Z,12.22
2022-10-07T03:12:13.356Z,12.14
2022-10-07T03:14:41.519Z,12.11
2022-10-07T03:17:11.354Z,12.23
2022-10-07T03:19:39.135Z,12.22
2022-10-07T03:22:07.649Z,12.17
2022-10-07T03:24:37.696Z,11.98
2022-10-07T03:27:08.971Z,12.00
2022-10-07T03:29:39.894Z,11.99
2022-10-07T03:32:08.881Z,11.97
2022-10-07T03:34:38.332Z,11.93
2022-10-07T03:37:06.223Z,11.91
2022-10-07T03:39:34.118Z,11.97
2022-10-07T03:42:01.962Z,11.92
2022-10-07T03:44:29.896Z,11.96
2022-10-07T03:46:58.843Z,11.88
2022-10-07T03:49:28.030Z,11.92
2022-10-07T03:51:59.364Z,11.92
2022-10-07T03:54:27.392Z,11.84
2022-10-07T03:56:56.067Z,11.96
2022-10-07T03:59:23.924Z,11.84
2022-10-07T04:01:51.825Z,11.84
2022-10-07T04:04:20.603Z,11.89
2022-10-07T04:06:48.955Z,11.91
2022-10-07T04:09:18.176Z,11.96
2022-10-07T04:11:46.073Z,11.96
2022-10-07T04:14:14.446Z,11.88
2022-10-07T04:16:42.840Z,11.85
2022-10-07T04:19:14.188Z,11.82
2022-10-07T04:21:43.208Z,11.89
2022-10-07T04:24:11.019Z,11.83
2022-10-07T04:26:40.284Z,11.91
2022-10-07T04:29:08.247Z,11.89
2022-10-07T04:31:37.398Z,11.81
2022-10-07T04:34:06.848Z,11.94
2022-10-07T04:36:41.008Z,11.93
2022-10-07T04:39:12.299Z,11.68
2022-10-07T04:41:55.949Z,11.76
2022-10-07T04:44:29.611Z,11.74
2022-10-07T04:47:07.714Z,11.69
2022-10-07T04:49:38.187Z,11.69
2022-10-07T04:52:08.619Z,11.56
2022-10-07T04:54:40.317Z,11.62
2022-10-07T04:57:12.248Z,11.63
2022-10-07T04:59:42.834Z,11.58
2022-10-07T05:02:13.480Z,11.71
2022-10-07T05:04:41.500Z,11.55
2022-10-07T05:07:10.482Z,11.58
2022-10-07T05:09:38.575Z,11.57
2022-10-07T05:12:06.869Z,11.58
2022-10-07T05:14:36.203Z,11.43
2022-10-07T05:17:05.318Z,11.30
2022-10-07T05:19:36.024Z,11.50
2022-10-07T05:22:04.275Z,11.46
2022-10-07T05:24:32.750Z,11.39
2022-10-07T05:27:01.805Z,11.39
2022-10-07T05:29:29.817Z,11.47
2022-10-07T05:32:04.528Z,11.40
2022-10-07T05:34:33.174Z,11.33
2022-10-07T05:37:01.276Z,11.23
2022-10-07T05:39:29.220Z,11.41
2022-10-07T05:42:03.355Z,11.25
2022-10-07T05:44:37.866Z,11.27
2022-10-07T05:47:08.355Z,11.29
2022-10-07T05:49:37.292Z,11.38
2022-10-07T05:52:07.738Z,11.51
2022-10-07T05:54:36.299Z,11.50
2022-10-07T05:57:04.715Z,11.51
2022-10-07T05:59:33.384Z,11.66
2022-10-07T06:02:01.631Z,11.68
2022-10-07T06:04:31.690Z,11.79
2022-10-07T06:06:59.721Z,11.65
2022-10-07T06:09:46.582Z,11.79
2022-10-07T06:12:34.644Z,11.67
2022-10-07T06:15:09.529Z,11.68
2022-10-07T06:17:38.327Z,11.83
2022-10-07T06:20:10.081Z,11.87
2022-10-07T06:22:37.993Z,11.70
2022-10-07T06:25:06.627Z,11.64
2022-10-07T06:27:34.866Z,11.75
2022-10-07T06:30:03.047Z,11.73
2022-10-07T06:32:32.614Z,11.75
2022-10-07T06:35:01.126Z,11.85
2022-10-07T06:37:32.848Z,11.96
2022-10-07T06:40:01.592Z,11.99
2022-10-07T06:42:33.140Z,12.06
2022-10-07T06:45:19.321Z,11.98
2022-10-07T06:47:49.144Z,12.20
2022-10-07T06:50:17.235Z,12.07
2022-10-07T06:52:46.431Z,12.15
2022-10-07T06:55:14.799Z,12.39
2022-10-07T06:57:45.923Z,12.41
2022-10-07T07:00:15.618Z,12.55
2022-10-07T07:02:44.837Z,12.56
2022-10-07T07:05:15.701Z,12.66
2022-10-07T07:07:47.565Z,12.64
2022-10-07T07:10:15.927Z,12.61
2022-10-07T07:12:48.141Z,12.73
2022-10-07T07:15:16.449Z,12.78
2022-10-07T07:17:44.732Z,12.87
2022-10-07T07:20:14.302Z,12.96
2022-10-07T07:22:43.341Z,13.08
2022-10-07T07:25:13.120Z,13.18
2022-10-07T07:27:41.173Z,13.17
2022-10-07T07:30:11.809Z,13.11
2022-10-07T07:32:40.239Z,13.19
2022-10-07T07:35:09.142Z,13.19
2022-10-07T07:37:37.306Z,13.41
2022-10-07T07:40:06.267Z,13.33
2022-10-07T07:42:37.293Z,13.44
2022-10-07T07:45:07.138Z,13.59
2022-10-07T07:47:35.652Z,13.60
2022-10-07T07:50:05.025Z,13.67
2022-10-07T07:52:35.168Z,13.86
2022-10-07T07:55:04.893Z,14.09
2022-10-07T07:57:33.185Z,13.78
2022-10-07T08:00:07.747Z,14.00
2022-10-07T08:02:59.809Z,14.12
2022-10-07T08:05:27.720Z,14.19
2022-10-07T08:07:58.332Z,14.31
2022-10-07T08:10:27.538Z,14.47
2022-10-07T08:12:56.689Z,14.50
2022-10-07T08:15:26.124Z,14.62
2022-10-07T08:17:53.956Z,14.61
2022-10-07T08:20:21.809Z,14.86
2022-10-07T08:22:51.016Z,14.98
2022-10-07T08:25:22.350Z,14.89
2022-10-07T08:27:50.621Z,14.91
2022-10-07T08:30:18.952Z,15.06
2022-10-07T08:32:50.349Z,15.03
2022-10-07T08:35:18.352Z,15.14
2022-10-07T08:37:46.373Z,15.32
2022-10-07T08:40:17.798Z,15.37
2022-10-07T08:42:47.531Z,15.56
2022-10-07T08:45:24.041Z,15.45
2022-10-07T08:47:53.544Z,15.62
2022-10-07T08:50:28.368Z,15.56
2022-10-07T08:53:00.195Z,15.68
2022-10-07T08:55:34.187Z,15.92
2022-10-07T08:58:25.306Z,15.94
2022-10-07T09:01:00.942Z,15.91
2022-10-07T09:03:42.010Z,16.03
2022-10-07T09:06:16.160Z,16.05
2022-10-07T09:08:49.028Z,16.21
2022-10-07T09:11:20.505Z,16.16
2022-10-07T09:13:52.222Z,16.31
2022-10-07T09:16:24.291Z,16.17
2022-10-07T09:18:56.920Z,16.34
2022-10-07T09:21:32.515Z,16.78
2022-10-07T09:24:15.241Z,16.94
2022-10-07T09:26:43.724Z,16.85
2022-10-07T09:29:12.100Z,16.87
2022-10-07T09:31:40.982Z,17.00
2022-10-07T09:34:19.411Z,17.13
2022-10-07T09:37:18.263Z,17.09
2022-10-07T09:39:47.733Z,17.12
2022-10-07T09:42:32.743Z,17.43
2022-10-07T09:45:05.608Z,17.31
2022-10-07T09:47:37.566Z,17.45
2022-10-07T09:50:27.581Z,17.78
2022-10-07T09:52:57.751Z,17.87
2022-10-07T09:55:37.450Z,17.89
2022-10-07T09:58:07.217Z,18.04
2022-10-07T10:00:43.863Z,18.16
2022-10-07T10:03:12.595Z,18.00
2022-10-07T10:05:42.404Z,17.92
2022-10-07T10:08:24.946Z,17.96
2022-10-07T10:10:54.836Z,18.16
2022-10-07T10:13:32.671Z,18.57
2022-10-07T10:16:04.450Z,18.75
2022-10-07T10:18:40.834Z,18.97
2022-10-07T10:21:20.123Z,19.51
2022-10-07T10:23:51.844Z,19.51
2022-10-07T10:26:56.057Z,19.67
2022-10-07T10:29:38.719Z,19.69
2022-10-07T10:32:32.835Z,19.93
2022-10-07T10:35:07.654Z,19.80
2022-10-07T10:37:51.092Z,20.46
2022-10-07T10:40:26.789Z,20.61
2022-10-07T10:42:59.322Z,21.35
2022-10-07T10:45:39.048Z,21.34
2022-10-07T10:48:29.991Z,21.56
2022-10-07T10:51:05.986Z,22.11
2022-10-07T10:53:45.848Z,21.89
2022-10-07T10:56:34.273Z,22.24
2022-10-07T10:59:17.496Z,22.45
2022-10-07T11:01:47.856Z,22.53
2022-10-07T11:04:28.658Z,22.46
2022-10-07T11:07:01.307Z,22.74
2022-10-07T11:09:35.666Z,22.74
2022-10-07T11:12:26.200Z,22.72
2022-10-07T11:14:59.569Z,22.84
2022-10-07T11:17:31.778Z,22.70
2022-10-07T11:20:08.542Z,22.47
2022-10-07T11:22:41.596Z,22.50
2022-10-07T11:25:18.932Z,22.70
2022-10-07T11:27:53.167Z,22.41
2022-10-07T11:30:23.256Z,22.62
2022-10-07T11:32:57.353Z,22.83
2022-10-07T11:35:32.027Z,22.76
2022-10-07T11:38:08.102Z,22.76
2022-10-07T11:40:42.451Z,22.59
2022-10-07T11:43:19.881Z,22.73
2022-10-07T11:45:53.639Z,22.92
2022-10-07T11:48:27.108Z,22.87
2022-10-07T11:51:00.589Z,22.63
2022-10-07T11:53:32.819Z,22.68
2022-10-07T11:56:04.646Z,22.72
2022-10-07T11:58:37.362Z,22.62
2022-10-07T12:01:51.499Z,22.70
2022-10-07T12:04:36.815Z,23.01
2022-10-07T12:07:40.231Z,22.70
2022-10-07T12:10:25.227Z,22.83
2022-10-07T12:12:56.298Z,22.64
2022-10-07T12:15:32.418Z,22.51
2022-10-07T12:18:27.699Z,22.30
2022-10-07T12:21:10.004Z,22.40
2022-10-07T12:23:43.856Z,22.30
2022-10-07T12:26:47.528Z,22.04
2022-10-07T12:29:31.313Z,21.46
2022-10-07T12:32:01.045Z,21.88
2022-10-07T12:34:43.486Z,21.39
2022-10-07T12:37:50.425Z,21.46
2022-10-07T12:40:25.875Z,21.17
2022-10-07T12:42:59.892Z,21.15
2022-10-07T12:45:30.222Z,21.11
2022-10-07T12:48:01.938Z,20.86
2022-10-07T12:50:31.876Z,21.06
2022-10-07T12:53:03.599Z,20.96
2022-10-07T12:55:37.101Z,20.89
2022-10-07T12:58:32.330Z,20.92
2022-10-07T13:04:03.184Z,20.67
2022-10-07T13:07:05.096Z,20.83
2022-10-07T13:10:06.031Z,20.82
2022-10-07T13:12:51.314Z,20.68
2022-10-07T13:15:42.607Z,21.00
2022-10-07T13:18:19.480Z,21.06
2022-10-07T13:21:01.801Z,21.05
2022-10-07T13:23:32.377Z,20.63
2022-10-07T13:26:02.810Z,20.85
2022-10-07T13:28:38.361Z,20.78
2022-10-07T13:31:21.617Z,20.84
2022-10-07T13:33:50.910Z,20.92
2022-10-07T13:36:23.321Z,20.62
2022-10-07T13:38:53.622Z,20.75
2022-10-07T13:41:27.766Z,20.80
2022-10-07T13:44:00.089Z,20.65
2022-10-07T13:46:31.333Z,20.62
2022-10-07T13:49:00.458Z,20.68
2022-10-07T13:51:34.639Z,20.68
2022-10-07T13:54:05.021Z,20.66
2022-10-07T13:56:36.021Z,20.40
2022-10-07T13:59:06.616Z,20.46
2022-10-07T14:01:39.887Z,20.75
2022-10-07T14:04:17.592Z,20.98
2022-10-07T14:06:59.950Z,20.52
2022-10-07T14:09:46.137Z,20.69
2022-10-07T14:12:18.349Z,20.68
2022-10-07T14:14:48.536Z,20.38
2022-10-07T14:17:28.326Z,20.31
2022-10-07T14:20:00.132Z,20.30
2022-10-07T14:22:32.477Z,20.38
2022-10-07T14:25:03.611Z,20.34
2022-10-07T14:28:15.980Z,20.24
2022-10-07T14:31:02.602Z,20.38
2022-10-07T14:33:58.398Z,20.32
2022-10-07T14:36:26.927Z,20.38
2022-10-07T14:38:58.239Z,20.26
2022-10-07T14:41:28.879Z,20.27
2022-10-07T14:43:59.999Z,20.20
2022-10-07T14:46:29.254Z,20.32
2022-10-07T14:48:57.361Z,20.05
2022-10-07T14:51:27.399Z,19.91
2022-10-07T14:54:01.957Z,19.88
2022-10-07T14:56:32.496Z,19.92
2022-10-07T14:59:02.924Z,20.16
2022-10-07T15:01:30.962Z,20.17
2022-10-07T15:03:59.099Z,20.01
2022-10-07T15:06:27.381Z,19.96
2022-10-07T15:08:56.800Z,19.92
2022-10-07T15:11:24.588Z,19.93
2022-10-07T15:13:52.485Z,19.93
2022-10-07T15:16:22.912Z,19.85
2022-10-07T15:18:53.046Z,19.89
2022-10-07T15:21:22.649Z,19.63
2022-10-07T15:23:54.092Z,19.77
2022-10-07T15:26:25.343Z,19.65
2022-10-07T15:28:54.343Z,19.65
2022-10-07T15:31:23.255Z,19.63
2022-10-07T15:33:51.700Z,19.77
2022-10-07T15:36:19.543Z,19.77
2022-10-07T15:38:47.371Z,19.70
2022-10-07T15:41:35.150Z,19.78
2022-10-07T15:44:05.936Z,19.65
2022-10-07T15:46:34.218Z,19.73
2022-10-07T15:49:03.520Z,19.39
2022-10-07T15:51:31.651Z,19.64
2022-10-07T15:53:59.542Z,19.56
2022-10-07T15:56:27.524Z,19.40
2022-10-07T15:58:58.512Z,19.44
2022-10-07T16:01:28.155Z,19.38
2022-10-07T16:03:56.344Z,19.49
2022-10-07T16:06:25.994Z,19.46
2022-10-07T16:08:57.785Z,19.39
2022-10-07T16:11:27.397Z,19.32
2022-10-07T16:13:56.931Z,19.28
2022-10-07T16:16:27.309Z,19.25
2022-10-07T16:18:58.070Z,19.13
2022-10-07T16:21:29.198Z,19.00
2022-10-07T16:23:59.495Z,18.97
2022-10-07T16:26:30.092Z,18.94
2022-10-07T16:29:18.561Z,18.92
2022-10-07T16:31:47.788Z,18.82
2022-10-07T16:34:17.548Z,18.80
2022-10-07T16:36:49.217Z,18.62
2022-10-07T16:39:19.101Z,18.66
2022-10-07T16:41:47.983Z,18.58
2022-10-07T16:44:17.201Z,18.47
2022-10-07T16:46:45.183Z,18.48
2022-10-07T16:49:15.466Z,18.40
2022-10-07T16:51:44.557Z,18.26
2022-10-07T16:54:16.566Z,18.25
2022-10-07T16:56:47.900Z,18.08
2022-10-07T16:59:22.451Z,18.12
2022-10-07T17:01:52.615Z,18.01
2022-10-07T17:04:20.769Z,18.02
2022-10-07T17:06:49.145Z,17.94
2022-10-07T17:09:18.270Z,17.92
2022-10-07T17:11:47.312Z,17.78
2022-10-07T17:14:18.872Z,17.76
2022-10-07T17:16:48.311Z,17.65
2022-10-07T17:19:17.931Z,17.56
2022-10-07T17:21:47.519Z,17.54
2022-10-07T17:24:22.862Z,17.52
2022-10-07T17:26:52.415Z,17.51
2022-10-07T17:29:26.193Z,17.36
2022-10-07T17:31:57.828Z,17.34
2022-10-07T17:34:26.141Z,17.26
2022-10-07T17:36:54.135Z,17.21
2022-10-07T17:39:22.291Z,17.10
2022-10-07T17:41:50.142Z,17.04
2022-10-07T17:44:18.603Z,17.00
2022-10-07T17:46:48.916Z,17.03
2022-10-07T17:49:16.942Z,16.96
2022-10-07T17:51:44.870Z,16.98
2022-10-07T17:54:14.287Z,16.92
2022-10-07T17:56:44.328Z,16.86
2022-10-07T17:59:12.309Z,16.79
2022-10-07T18:01:40.328Z,16.80
2022-10-07T18:04:14.813Z,16.74
2022-10-07T18:06:43.326Z,16.71
2022-10-07T18:09:13.988Z,16.64
2022-10-07T18:11:59.869Z,16.58
2022-10-07T18:14:47.736Z,16.58
2022-10-07T18:17:19.257Z,16.63
2022-10-07T18:19:48.577Z,16.60
2022-10-07T18:22:16.449Z,16.56
2022-10-07T18:24:51.673Z,16.48
2022-10-07T18:27:27.005Z,16.39
2022-10-07T18:29:55.004Z,16.40
2022-10-07T18:32:23.637Z,16.34
2022-10-07T18:34:52.827Z,16.25
2022-10-07T18:37:20.737Z,16.16
2022-10-07T18:39:48.591Z,16.19
2022-10-07T18:42:16.400Z,16.31
2022-10-07T18:44:44.226Z,16.29
2022-10-07T18:47:12.053Z,16.42
2022-10-07T18:49:39.945Z,16.37
2022-10-07T18:52:09.396Z,16.43
2022-10-07T18:54:37.211Z,16.35
2022-10-07T18:57:05.217Z,16.33
2022-10-07T18:59:33.054Z,16.40
2022-10-07T19:02:00.938Z,16.31
2022-10-07T19:04:30.252Z,16.32
2022-10-07T19:06:58.067Z,16.30
2022-10-07T19:09:27.272Z,16.22
2022-10-07T19:11:55.151Z,16.16
2022-10-07T19:14:25.829Z,16.20
2022-10-07T19:16:54.181Z,16.08
2022-10-07T19:19:23.852Z,16.08
2022-10-07T19:21:53.437Z,16.08
2022-10-07T19:24:43.468Z,16.13
2022-10-07T19:27:12.704Z,16.00
2022-10-07T19:29:40.502Z,16.03
2022-10-07T19:32:09.061Z,16.16
2022-10-07T19:34:37.422Z,16.07
2022-10-07T19:37:05.321Z,15.96
2022-10-07T19:39:33.424Z,16.02
2022-10-07T19:42:01.271Z,16.04
2022-10-07T19:44:31.768Z,15.96
2022-10-07T19:47:00.941Z,15.93
2022-10-07T19:49:28.867Z,15.94
2022-10-07T19:51:56.662Z,15.94
2022-10-07T19:54:24.481Z,15.99
2022-10-07T19:56:52.343Z,15.92
2022-10-07T19:59:20.156Z,16.00
2022-10-07T20:01:49.715Z,15.87
2022-10-07T20:04:20.716Z,15.99
2022-10-07T20:06:48.805Z,15.93
2022-10-07T20:09:18.564Z,15.94
2022-10-07T20:11:46.781Z,15.94
2022-10-07T20:14:16.142Z,15.88
2022-10-07T20:16:44.538Z,15.59
2022-10-07T20:19:16.381Z,15.68
2022-10-07T20:21:44.275Z,15.71
2022-10-07T20:24:14.418Z,15.72
2022-10-07T20:26:43.900Z,15.65
2022-10-07T20:29:12.117Z,15.63
2022-10-07T20:31:42.122Z,15.66
2022-10-07T20:34:15.464Z,15.70
2022-10-07T20:36:43.710Z,15.67
2022-10-07T20:39:33.971Z,15.71
2022-10-07T20:42:19.516Z,15.66
2022-10-07T20:44:48.229Z,15.72
2022-10-07T20:47:16.086Z,15.56
2022-10-07T20:49:45.380Z,15.52
2022-10-07T20:52:16.677Z,15.62
2022-10-07T20:54:45.093Z,15.61
2022-10-07T20:57:15.277Z,15.55
2022-10-07T20:59:43.531Z,15.49
2022-10-07T21:02:12.014Z,15.37
2022-10-07T21:04:39.984Z,15.37
2022-10-07T21:07:09.498Z,15.41
2022-10-07T21:09:37.384Z,15.38
2022-10-07T21:12:07.356Z,15.49
2022-10-07T21:14:36.585Z,15.50
2022-10-07T21:17:05.381Z,15.48
2022-10-07T21:19:35.494Z,15.33
2022-10-07T21:22:04.088Z,15.30
2022-10-07T21:24:34.317Z,15.37
2022-10-07T21:27:02.887Z,15.34
2022-10-07T21:29:32.180Z,15.23
2022-10-07T21:32:00.890Z,15.27
2022-10-07T21:34:29.773Z,15.20
2022-10-07T21:36:57.920Z,15.21
2022-10-07T21:39:26.498Z,15.33
2022-10-07T21:41:55.764Z,15.28
2022-10-07T21:44:23.602Z,15.23
2022-10-07T21:46:51.486Z,15.25
2022-10-07T21:49:19.306Z,15.14
2022-10-07T21:51:47.275Z,15.16
2022-10-07T21:54:15.838Z,15.04
2022-10-07T21:56:46.212Z,15.14
2022-10-07T21:59:15.937Z,15.05
2022-10-07T22:01:43.791Z,14.99
2022-10-07T22:04:17.330Z,14.96
2022-10-07T22:07:03.127Z,15.14
2022-10-07T22:09:31.389Z,15.08
2022-10-07T22:11:59.262Z,15.02
2022-10-07T22:14:28.655Z,15.09
2022-10-07T22:16:56.696Z,14.93
2022-10-07T22:19:25.245Z,15.02
2022-10-07T22:21:53.299Z,15.11
2022-10-07T22:24:21.136Z,15.00
2022-10-07T22:26:51.134Z,14.99
2022-10-07T22:29:20.683Z,15.04
2022-10-07T22:31:50.041Z,15.03
2022-10-07T22:34:36.078Z,15.00
2022-10-07T22:37:04.347Z,15.04
2022-10-07T22:39:32.259Z,14.82
2022-10-07T22:42:00.953Z,14.96
2022-10-07T22:44:28.799Z,14.92
2022-10-07T22:46:59.327Z,15.03
2022-10-07T22:49:30.014Z,14.98
2022-10-07T22:51:59.816Z,14.91
2022-10-07T22:54:28.245Z,14.87
2022-10-07T22:56:56.097Z,14.86
2022-10-07T22:59:23.967Z,14.82
2022-10-07T23:01:51.781Z,14.70
2022-10-07T23:04:21.317Z,14.80
2022-10-07T23:06:49.275Z,14.76
2022-10-07T23:09:17.151Z,14.77
2022-10-07T23:11:45.669Z,14.84
2022-10-07T23:14:13.595Z,14.79
2022-10-07T23:16:41.881Z,14.73
2022-10-07T23:19:10.305Z,14.78
2022-10-07T23:21:39.729Z,14.64
2022-10-07T23:24:09.842Z,14.48
2022-10-07T23:26:38.309Z,14.53
2022-10-07T23:29:07.596Z,14.54
2022-10-07T23:31:35.536Z,14.64
2022-10-07T23:34:03.856Z,14.51
2022-10-07T23:36:32.957Z,14.60
2022-10-07T23:39:02.234Z,14.54
2022-10-07T23:41:31.684Z,14.50
2022-10-07T23:44:01.808Z,14.43
2022-10-07T23:46:32.747Z,14.48
2022-10-07T23:49:00.961Z,14.49
2022-10-07T23:51:29.451Z,14.41
2022-10-07T23:53:57.786Z,14.40
2022-10-07T23:56:27.184Z,14.54
2022-10-07T23:58:55.054Z,14.41
